Time;durP1;ratioP1;P1;durP2;ratioP2;P2;SDS_P1;SDS_P2;PMS_P1;PMS_P2;Temp;Humidity;BMP_temperature;BMP_pressure;BME280_temperature;BME280_humidity;BME280_pressure;Samples;Min_cycle;Max_cycle;Signal;HPM_P1;HPM_P2
2021/05/30 00:01:21;;;;;;;21.65;15.05;;;;;;;;;;5050467;28;20031;-73
2021/05/30 00:03:49;;;;;;;21.50;14.10;;;;;;;;;;5050480;28;20033;-74
2021/05/30 00:06:18;;;;;;;24.45;15.85;;;;;;;;;;5050919;28;20095;-74
2021/05/30 00:08:43;;;;;;;20.98;14.00;;;;;;;;;;5050806;28;20020;-72
2021/05/30 00:11:12;;;;;;;24.35;16.08;;;;;;;;;;5050734;28;20025;-73
2021/05/30 00:13:41;;;;;;;24.67;17.38;;;;;;;;;;5052036;28;20036;-73
2021/05/30 00:16:07;;;;;;;21.80;14.95;;;;;;;;;;5058384;28;20546;-73
2021/05/30 00:18:33;;;;;;;24.02;16.58;;;;;;;;;;5068550;28;20044;-73
2021/05/30 00:21:02;;;;;;;23.95;15.88;;;;;;;;;;5052076;28;20417;-74
2021/05/30 00:23:30;;;;;;;22.92;14.68;;;;;;;;;;5051260;28;20112;-73
2021/05/30 00:25:56;;;;;;;23.33;15.75;;;;;;;;;;5051131;28;20024;-74
2021/05/30 00:28:22;;;;;;;24.58;15.77;;;;;;;;;;5051730;28;20036;-73
2021/05/30 00:30:48;;;;;;;23.48;15.85;;;;;;;;;;5051648;28;20028;-73
2021/05/30 00:33:16;;;;;;;23.35;15.45;;;;;;;;;;5051536;28;20116;-74
2021/05/30 00:35:42;;;;;;;23.75;16.23;;;;;;;;;;5051377;28;20040;-74
2021/05/30 00:38:08;;;;;;;24.40;17.42;;;;;;;;;;5051373;28;20033;-74
2021/05/30 00:40:35;;;;;;;24.42;16.73;;;;;;;;;;5055073;28;20480;-74
2021/05/30 00:43:01;;;;;;;24.27;15.48;;;;;;;;;;5071400;28;20374;-73
2021/05/30 00:45:30;;;;;;;24.23;17.48;;;;;;;;;;5054701;28;20035;-74
2021/05/30 00:47:56;;;;;;;22.10;16.23;;;;;;;;;;5091525;28;20030;-74
2021/05/30 00:50:24;;;;;;;27.17;17.67;;;;;;;;;;5091343;28;20095;-74
2021/05/30 00:52:50;;;;;;;25.92;17.60;;;;;;;;;;5091358;28;20032;-73
2021/05/30 00:55:16;;;;;;;24.77;16.70;;;;;;;;;;5091508;28;20028;-73
2021/05/30 00:57:43;;;;;;;25.65;16.88;;;;;;;;;;5091387;28;20020;-74
2021/05/30 01:00:12;;;;;;;24.80;17.58;;;;;;;;;;5091328;28;20034;-73
2021/05/30 01:02:38;;;;;;;23.65;16.55;;;;;;;;;;5091532;28;20449;-73
2021/05/30 01:05:05;;;;;;;23.85;16.50;;;;;;;;;;5091245;28;20078;-74
2021/05/30 01:07:36;;;;;;;24.90;15.57;;;;;;;;;;5091337;28;20175;-74
2021/05/30 01:10:18;;;;;;;23.33;16.13;;;;;;;;;;5074486;28;20093;-73
2021/05/30 01:12:47;;;;;;;20.77;16.00;;;;;;;;;;5070905;28;20606;-73
2021/05/30 01:15:17;;;;;;;24.25;16.02;;;;;;;;;;5070904;28;20370;-74
2021/05/30 01:17:44;;;;;;;24.38;16.88;;;;;;;;;;5091045;28;20160;-74
2021/05/30 01:20:14;;;;;;;27.10;16.83;;;;;;;;;;5072965;28;20027;-74
2021/05/30 01:22:41;;;;;;;24.23;16.52;;;;;;;;;;5091690;28;20086;-74
2021/05/30 01:25:07;;;;;;;24.70;16.90;;;;;;;;;;5091043;28;20035;-74
2021/05/30 01:27:33;;;;;;;25.10;17.05;;;;;;;;;;5092486;28;20027;-74
2021/05/30 01:29:59;;;;;;;22.10;16.95;;;;;;;;;;5094998;28;20024;-74
2021/05/30 01:32:25;;;;;;;29.55;18.15;;;;;;;;;;5095018;28;20020;-74
2021/05/30 01:34:51;;;;;;;26.67;17.38;;;;;;;;;;5094944;28;20035;-74
2021/05/30 01:37:17;;;;;;;28.33;18.02;;;;;;;;;;5094912;28;20016;-75
2021/05/30 01:39:43;;;;;;;26.98;17.70;;;;;;;;;;5076849;28;20024;-74
2021/05/30 01:42:12;;;;;;;24.08;17.30;;;;;;;;;;5094668;28;20460;-74
2021/05/30 01:44:38;;;;;;;22.90;16.77;;;;;;;;;;5094689;28;20028;-73
2021/05/30 01:47:04;;;;;;;26.58;18.15;;;;;;;;;;5062099;28;20515;-74
2021/05/30 01:49:30;;;;;;;25.67;17.48;;;;;;;;;;5074369;28;20031;-73
2021/05/30 01:51:56;;;;;;;26.67;17.42;;;;;;;;;;5074539;28;20047;-73
2021/05/30 01:54:22;;;;;;;30.25;19.25;;;;;;;;;;5074478;28;20029;-72
2021/05/30 01:56:55;;;;;;;30.08;19.05;;;;;;;;;;5074457;28;20397;-73
2021/05/30 01:59:24;;;;;;;27.85;18.02;;;;;;;;;;5056455;28;20021;-73
2021/05/30 02:01:51;;;;;;;29.48;19.80;;;;;;;;;;5074167;28;20036;-73
2021/05/30 02:04:17;;;;;;;30.08;20.02;;;;;;;;;;5074246;28;20016;-74
2021/05/30 02:06:44;;;;;;;27.23;18.27;;;;;;;;;;5074450;28;20483;-73
2021/05/30 02:09:10;;;;;;;30.25;19.05;;;;;;;;;;5074034;28;20029;-73
2021/05/30 02:11:42;;;;;;;32.08;19.55;;;;;;;;;;5074113;28;20098;-73
2021/05/30 02:14:08;;;;;;;30.17;19.17;;;;;;;;;;5073887;28;20028;-73
2021/05/30 02:16:35;;;;;;;27.05;18.85;;;;;;;;;;5073878;28;20101;-73
2021/05/30 02:19:01;;;;;;;29.98;19.33;;;;;;;;;;5074018;28;20079;-74
2021/05/30 02:21:37;;;;;;;28.52;18.17;;;;;;;;;;5073665;28;20082;-73
2021/05/30 02:24:06;;;;;;;28.25;19.13;;;;;;;;;;5073579;28;20020;-75
2021/05/30 02:26:35;;;;;;;26.40;17.75;;;;;;;;;;5073586;28;20017;-73
2021/05/30 02:29:01;;;;;;;29.63;18.85;;;;;;;;;;5073358;28;20094;-74
2021/05/30 02:31:29;;;;;;;25.75;18.05;;;;;;;;;;5073609;28;20042;-73
2021/05/30 02:33:55;;;;;;;29.05;17.23;;;;;;;;;;5073367;28;20028;-73
2021/05/30 02:36:24;;;;;;;28.60;18.45;;;;;;;;;;5073392;28;20028;-75
2021/05/30 02:38:50;;;;;;;26.05;17.52;;;;;;;;;;5055653;28;20112;-74
2021/05/30 02:41:22;;;;;;;26.15;18.27;;;;;;;;;;5073106;28;20576;-75
2021/05/30 02:43:48;;;;;;;25.45;17.02;;;;;;;;;;5055543;28;20422;-75
2021/05/30 02:46:15;;;;;;;27.45;17.73;;;;;;;;;;5073318;28;20020;-74
2021/05/30 02:48:43;;;;;;;28.58;19.13;;;;;;;;;;5058400;28;20021;-74
2021/05/30 02:51:11;;;;;;;33.20;19.38;;;;;;;;;;5053188;28;20021;-74
2021/05/30 02:53:37;;;;;;;24.17;17.45;;;;;;;;;;5052905;28;20461;-74
2021/05/30 02:56:04;;;;;;;26.45;19.65;;;;;;;;;;5053040;28;20033;-74
2021/05/30 02:58:32;;;;;;;22.52;16.58;;;;;;;;;;5052953;28;20202;-74
2021/05/30 03:01:01;;;;;;;25.17;17.42;;;;;;;;;;5052821;28;20513;-74
2021/05/30 03:03:27;;;;;;;27.70;18.70;;;;;;;;;;5052721;28;20025;-74
2021/05/30 03:05:55;;;;;;;27.23;18.58;;;;;;;;;;5035221;28;20024;-74
2021/05/30 03:08:21;;;;;;;27.50;17.92;;;;;;;;;;5052734;28;20021;-74
2021/05/30 03:10:47;;;;;;;26.98;17.88;;;;;;;;;;5052860;28;20128;-74
2021/05/30 03:13:13;;;;;;;25.50;18.52;;;;;;;;;;5052957;28;20117;-73
2021/05/30 03:15:39;;;;;;;27.10;17.35;;;;;;;;;;5058462;28;20047;-74
2021/05/30 03:18:06;;;;;;;27.05;17.65;;;;;;;;;;5093097;28;20024;-74
2021/05/30 03:20:34;;;;;;;24.25;17.50;;;;;;;;;;5092775;28;20529;-74
2021/05/30 03:23:03;;;;;;;23.13;16.55;;;;;;;;;;5092978;28;20527;-74
2021/05/30 03:25:29;;;;;;;25.35;17.73;;;;;;;;;;5092758;28;20027;-74
2021/05/30 03:27:55;;;;;;;31.77;18.58;;;;;;;;;;5092847;28;20032;-74
2021/05/30 03:30:21;;;;;;;32.78;18.23;;;;;;;;;;5092639;28;20051;-75
2021/05/30 03:32:47;;;;;;;29.63;18.58;;;;;;;;;;5092753;28;20048;-74
2021/05/30 03:35:13;;;;;;;31.80;17.95;;;;;;;;;;5074716;28;20070;-74
2021/05/30 03:37:39;;;;;;;31.48;19.33;;;;;;;;;;5064833;28;20031;-73
2021/05/30 03:40:16;;;;;;;26.92;18.33;;;;;;;;;;5072220;28;20074;-74
2021/05/30 03:42:48;;;;;;;27.20;18.02;;;;;;;;;;5051302;28;20442;-75
2021/05/30 03:45:14;;;;;;;28.00;17.83;;;;;;;;;;5052348;28;20403;-75
2021/05/30 03:47:42;;;;;;;27.08;17.55;;;;;;;;;;5032545;28;20411;-75
2021/05/30 03:50:09;;;;;;;30.40;19.02;;;;;;;;;;5031674;28;20109;-75
2021/05/30 03:52:35;;;;;;;25.65;18.20;;;;;;;;;;5032424;28;20025;-74
2021/05/30 03:55:04;;;;;;;28.75;18.27;;;;;;;;;;5032130;28;20025;-75
2021/05/30 03:57:31;;;;;;;27.90;17.45;;;;;;;;;;5032142;28;20025;-74
2021/05/30 03:59:58;;;;;;;30.58;18.40;;;;;;;;;;5032128;28;20064;-74
2021/05/30 04:02:25;;;;;;;26.50;17.95;;;;;;;;;;5032039;28;20036;-74
2021/05/30 04:04:51;;;;;;;27.30;18.17;;;;;;;;;;5032079;28;20021;-74
2021/05/30 04:07:19;;;;;;;30.38;19.05;;;;;;;;;;5032053;28;20374;-74
2021/05/30 04:09:45;;;;;;;28.55;17.08;;;;;;;;;;5031944;28;20022;-74
2021/05/30 04:12:11;;;;;;;27.92;16.90;;;;;;;;;;5031976;28;20070;-75
2021/05/30 04:14:37;;;;;;;27.38;16.70;;;;;;;;;;5031866;28;20097;-75
2021/05/30 04:17:03;;;;;;;29.63;17.77;;;;;;;;;;5045078;28;20128;-76
2021/05/30 04:19:29;;;;;;;26.85;17.80;;;;;;;;;;5050672;28;20127;-76
2021/05/30 04:21:55;;;;;;;27.92;17.73;;;;;;;;;;5051678;28;20060;-74
2021/05/30 04:24:24;;;;;;;23.73;16.65;;;;;;;;;;5051739;28;20071;-74
2021/05/30 04:26:52;;;;;;;27.20;16.73;;;;;;;;;;5050907;28;20061;-74
2021/05/30 04:29:18;;;;;;;26.90;17.60;;;;;;;;;;5031763;28;20161;-74
2021/05/30 04:31:44;;;;;;;26.60;16.02;;;;;;;;;;5032001;28;20121;-75
2021/05/30 04:34:10;;;;;;;27.40;16.02;;;;;;;;;;5031862;28;20029;-74
2021/05/30 04:36:36;;;;;;;28.05;16.33;;;;;;;;;;5031759;28;20029;-75
2021/05/30 04:39:03;;;;;;;22.17;17.10;;;;;;;;;;5031532;28;20344;-75
2021/05/30 04:41:29;;;;;;;24.65;15.75;;;;;;;;;;5042847;28;20098;-75
2021/05/30 04:43:55;;;;;;;21.63;15.48;;;;;;;;;;5051196;28;20021;-75
2021/05/30 04:46:21;;;;;;;25.25;16.83;;;;;;;;;;5060167;28;20028;-75
2021/05/30 04:48:47;;;;;;;24.33;16.25;;;;;;;;;;5071265;28;20378;-75
2021/05/30 04:51:13;;;;;;;23.23;15.77;;;;;;;;;;5053673;28;20029;-76
2021/05/30 04:53:43;;;;;;;25.63;16.13;;;;;;;;;;5071297;28;20402;-76
2021/05/30 04:56:12;;;;;;;26.92;15.68;;;;;;;;;;5071256;28;20100;-74
2021/05/30 04:58:38;;;;;;;21.77;14.32;;;;;;;;;;5071067;28;20103;-74
2021/05/30 05:01:07;;;;;;;24.50;15.57;;;;;;;;;;5071057;28;20039;-75
2021/05/30 05:03:33;;;;;;;21.48;15.57;;;;;;;;;;5073995;28;20448;-75
2021/05/30 05:06:02;;;;;;;21.00;14.20;;;;;;;;;;5075040;28;20157;-75
2021/05/30 05:08:28;;;;;;;21.58;15.40;;;;;;;;;;5075094;28;20040;-75
2021/05/30 05:10:54;;;;;;;19.08;14.63;;;;;;;;;;5075117;28;20032;-76
2021/05/30 05:13:20;;;;;;;22.92;15.40;;;;;;;;;;5074959;28;20111;-75
2021/05/30 05:15:48;;;;;;;21.02;14.73;;;;;;;;;;5078865;28;20427;-75
2021/05/30 05:18:15;;;;;;;18.13;13.25;;;;;;;;;;5064195;28;20112;-75
2021/05/30 05:20:43;;;;;;;17.10;13.40;;;;;;;;;;5074730;28;20378;-75
2021/05/30 05:23:11;;;;;;;18.23;14.27;;;;;;;;;;5075030;28;20487;-75
2021/05/30 05:25:37;;;;;;;18.50;12.38;;;;;;;;;;5074630;28;20050;-74
2021/05/30 05:28:06;;;;;;;20.50;13.43;;;;;;;;;;5074673;28;20051;-73
2021/05/30 05:30:32;;;;;;;19.60;12.07;;;;;;;;;;5074693;28;20323;-75
2021/05/30 05:33:01;;;;;;;22.30;12.70;;;;;;;;;;5074501;28;20024;-75
2021/05/30 05:35:30;;;;;;;18.05;12.18;;;;;;;;;;5074780;28;20039;-74
2021/05/30 05:37:57;;;;;;;15.85;11.90;;;;;;;;;;5074709;28;20460;-75
2021/05/30 05:40:23;;;;;;;17.27;12.93;;;;;;;;;;5074410;28;20029;-74
2021/05/30 05:42:49;;;;;;;16.13;11.18;;;;;;;;;;5075767;28;20453;-74
2021/05/30 05:45:16;;;;;;;15.77;10.93;;;;;;;;;;5074872;28;20032;-75
2021/05/30 05:47:43;;;;;;;16.38;11.75;;;;;;;;;;5095146;28;20297;-74
2021/05/30 05:50:12;;;;;;;16.73;11.60;;;;;;;;;;5095028;28;20031;-76
2021/05/30 05:52:39;;;;;;;15.00;10.95;;;;;;;;;;5076956;28;20024;-75
2021/05/30 05:55:08;;;;;;;14.00;10.65;;;;;;;;;;5095354;28;20051;-75
2021/05/30 05:57:35;;;;;;;15.25;10.60;;;;;;;;;;5094850;28;20027;-76
2021/05/30 06:00:02;;;;;;;14.57;9.63;;;;;;;;;;5094926;28;20061;-74
2021/05/30 06:02:28;;;;;;;15.32;10.48;;;;;;;;;;5094814;28;20071;-74
2021/05/30 06:04:54;;;;;;;14.90;10.60;;;;;;;;;;5094611;28;20479;-74
2021/05/30 06:07:20;;;;;;;14.45;9.10;;;;;;;;;;5090314;28;20036;-74
2021/05/30 06:09:46;;;;;;;15.73;9.13;;;;;;;;;;5056783;28;20036;-75
2021/05/30 06:12:15;;;;;;;18.50;10.38;;;;;;;;;;5056552;28;20080;-75
2021/05/30 06:14:44;;;;;;;13.95;9.27;;;;;;;;;;5073744;28;20055;-76
2021/05/30 06:17:11;;;;;;;13.80;9.57;;;;;;;;;;5089930;28;20028;-77
2021/05/30 06:19:37;;;;;;;12.65;9.00;;;;;;;;;;5076670;28;20020;-77
2021/05/30 06:22:04;;;;;;;14.90;9.05;;;;;;;;;;5076202;28;20039;-75
2021/05/30 06:24:30;;;;;;;13.35;9.35;;;;;;;;;;5076530;28;20027;-75
2021/05/30 06:26:57;;;;;;;14.10;9.75;;;;;;;;;;5094374;28;20462;-77
2021/05/30 06:29:25;;;;;;;11.75;8.80;;;;;;;;;;5094039;28;20016;-76
2021/05/30 06:31:52;;;;;;;13.05;8.35;;;;;;;;;;5093969;28;20084;-76
2021/05/30 06:34:20;;;;;;;16.52;9.85;;;;;;;;;;5094130;28;20111;-76
2021/05/30 06:36:50;;;;;;;11.63;8.32;;;;;;;;;;5093891;28;20117;-76
2021/05/30 06:39:18;;;;;;;12.48;10.45;;;;;;;;;;5093892;28;20199;-76
2021/05/30 06:41:45;;;;;;;12.25;8.88;;;;;;;;;;5093566;28;20104;-76
2021/05/30 06:44:13;;;;;;;14.13;8.45;;;;;;;;;;5093459;28;20016;-76
2021/05/30 06:46:39;;;;;;;13.32;8.88;;;;;;;;;;5082260;28;20088;-76
2021/05/30 06:49:05;;;;;;;12.18;8.38;;;;;;;;;;5073175;28;20525;-77
2021/05/30 06:51:32;;;;;;;12.90;8.20;;;;;;;;;;5073260;28;20130;-77
2021/05/30 06:54:01;;;;;;;10.15;6.90;;;;;;;;;;5073180;28;20082;-77
2021/05/30 06:56:30;;;;;;;9.90;6.57;;;;;;;;;;5055338;28;20028;-77
2021/05/30 06:58:56;;;;;;;7.53;6.10;;;;;;;;;;5073140;28;20024;-76
2021/05/30 07:01:22;;;;;;;8.82;6.63;;;;;;;;;;5073005;28;20090;-76
2021/05/30 07:03:49;;;;;;;9.70;7.00;;;;;;;;;;5072982;28;20099;-76
2021/05/30 07:06:19;;;;;;;10.52;6.82;;;;;;;;;;5072760;28;20044;-76
2021/05/30 07:08:45;;;;;;;10.25;6.85;;;;;;;;;;5072526;28;20085;-76
2021/05/30 07:11:14;;;;;;;8.90;6.05;;;;;;;;;;5072549;28;20056;-75
2021/05/30 07:13:40;;;;;;;9.63;6.10;;;;;;;;;;5072609;28;20028;-75
2021/05/30 07:16:06;;;;;;;10.60;5.97;;;;;;;;;;5072337;28;20025;-75
2021/05/30 07:18:32;;;;;;;8.52;5.68;;;;;;;;;;5055422;28;20398;-76
2021/05/30 07:20:59;;;;;;;7.55;6.30;;;;;;;;;;5072609;28;20052;-76
2021/05/30 07:23:28;;;;;;;9.95;5.88;;;;;;;;;;5072628;28;20016;-75
2021/05/30 07:25:54;;;;;;;7.93;6.10;;;;;;;;;;5071737;28;20012;-74
2021/05/30 07:28:21;;;;;;;7.65;5.63;;;;;;;;;;5072568;28;20024;-75
2021/05/30 07:30:49;;;;;;;8.60;6.03;;;;;;;;;;5072326;28;20053;-76
2021/05/30 07:33:17;;;;;;;8.25;6.32;;;8.90;99.90;;;;;;5072440;28;20020;-77
2021/05/30 07:35:45;;;;;;;11.30;5.85;;;25.00;64.70;;;;;;5072429;28;20099;-76
2021/05/30 07:38:11;;;;;;;6.45;5.75;;;24.80;64.80;;;;;;5072613;28;20020;-75
2021/05/30 07:40:37;;;;;;;8.23;5.55;;;25.20;63.90;;;;;;5072466;28;20048;-75
2021/05/30 07:43:03;;;;;;;6.90;4.80;;;24.90;62.30;;;;;;5072609;28;20032;-75
2021/05/30 07:45:29;;;;;;;6.53;4.82;;;24.40;62.80;;;;;;5072578;28;20020;-76
2021/05/30 07:47:56;;;;;;;7.00;5.22;;;23.20;63.20;;;;;;5072282;28;20025;-74
2021/05/30 07:50:23;;;;;;;6.13;5.00;;;22.70;66.70;;;;;;5072308;28;20107;-76
2021/05/30 07:52:51;;;;;;;10.50;5.28;;;23.20;65.80;;;;;;5072377;28;20039;-76
2021/05/30 07:55:20;;;;;;;5.40;4.43;;;23.70;64.60;;;;;;5057293;28;20029;-75
2021/05/30 07:57:46;;;;;;;7.95;5.65;;;;;;;;;;5052193;28;20040;-76
2021/05/30 08:00:18;;;;;;;6.30;5.05;;;24.40;62.10;;;;;;5052097;28;20021;-77
2021/05/30 08:02:45;;;;;;;10.90;5.05;;;;;;;;;;5052191;28;20021;-75
2021/05/30 08:05:16;;;;;;;7.03;5.40;;;;;;;;;;5034307;28;20040;-75
2021/05/30 08:07:42;;;;;;;8.35;5.35;;;;;;;;;;5052044;28;20021;-77
2021/05/30 08:10:13;;;;;;;7.40;5.22;;;24.50;60.50;;;;;;5034550;28;20016;-77
2021/05/30 08:12:39;;;;;;;6.45;4.38;;;;;;;;;;5052161;28;20021;-75
2021/05/30 08:15:06;;;;;;;5.95;4.75;;;;;;;;;;5051913;28;20557;-76
2021/05/30 08:17:32;;;;;;;7.43;5.15;;;;;;;;;;5070144;28;20396;-76
2021/05/30 08:19:58;;;;;;;5.60;4.60;;;;;;;;;;5054045;28;20108;-75
2021/05/30 08:22:24;;;;;;;5.25;4.45;;;;;;;;;;5071937;28;20203;-74
2021/05/30 08:24:51;;;;;;;7.22;4.20;;;;;;;;;;5071779;28;20034;-74
2021/05/30 08:27:18;;;;;;;7.20;4.60;;;;;;;;;;5071838;28;20025;-70
2021/05/30 08:29:47;;;;;;;8.40;5.43;;;;;;;;;;5053597;28;20076;-68
2021/05/30 08:32:14;;;;;;;6.85;4.53;;;;;;;;;;5071550;28;20453;-69
2021/05/30 08:34:40;;;;;;;6.63;4.60;;;25.10;61.20;;;;;;5071331;28;20024;-69
2021/05/30 08:37:11;;;;;;;7.72;4.47;;;24.80;61.20;;;;;;5083842;28;20608;-72
2021/05/30 08:39:39;;;;;;;;;;;25.70;59.20;;;;;;5092174;28;20036;-71
2021/05/30 08:42:05;;;;;;;4.95;3.90;;;26.90;57.10;;;;;;5091573;28;19920;-72
2021/05/30 08:44:30;;;;;;;5.22;3.70;;;27.80;56.30;;;;;;5091769;28;20024;-74
2021/05/30 08:46:56;;;;;;;6.13;4.13;;;28.80;53.50;;;;;;5077941;28;20032;-71
2021/05/30 08:49:22;;;;;;;4.60;3.75;;;;;;;;;;5053797;28;20035;-70
2021/05/30 08:51:47;;;;;;;4.97;3.40;;;29.40;52.00;;;;;;5071479;28;20086;-70
2021/05/30 08:54:23;;;;;;;3.95;3.35;;;29.70;49.90;;;;;;5070997;28;20020;-70
2021/05/30 08:56:51;;;;;;;3.55;3.22;;;30.00;50.10;;;;;;5053855;28;20218;-69
2021/05/30 08:59:27;;;;;;;4.55;2.40;;;30.60;49.60;;;;;;5071244;28;20035;-70
2021/05/30 09:01:55;;;;;;;5.50;2.90;;;30.70;49.20;;;;;;5071297;28;20025;-70
2021/05/30 09:04:41;;;;;;;5.18;3.15;;;31.10;47.40;;;;;;5071241;28;20464;-71
2021/05/30 09:07:08;;;;;;;3.28;2.67;;;31.60;44.80;;;;;;5070715;28;20021;-76
2021/05/30 09:09:45;;;;;;;4.88;3.08;;;30.40;44.50;;;;;;5070764;28;20035;-69
2021/05/30 09:12:31;;;;;;;3.42;3.10;;;27.50;49.30;;;;;;5068841;28;20025;-70
2021/05/30 09:14:59;;;;;;;3.70;2.88;;;27.80;48.10;;;;;;5069387;28;20487;-71
2021/05/30 09:17:26;;;;;;;3.17;2.63;;;27.20;49.00;;;;;;5049910;28;20024;-70
2021/05/30 09:19:58;;;;;;;3.05;2.67;;;27.30;50.20;;;;;;5070018;28;20021;-69
2021/05/30 09:22:45;;;;;;;4.22;2.92;;;28.40;47.50;;;;;;5070216;28;20032;-70
2021/05/30 09:25:21;;;;;;;3.70;2.47;;;29.10;47.10;;;;;;5068484;28;20059;-70
2021/05/30 09:28:01;;;;;;;3.55;2.72;;;29.00;47.10;;;;;;5071731;28;20025;-71
2021/05/30 09:30:34;;;;;;;2.53;2.13;;;29.30;46.30;;;;;;5070699;28;20390;-70
2021/05/30 09:33:05;;;;;;;5.80;3.15;;;29.20;44.80;;;;;;5070693;28;20032;-71
2021/05/30 09:35:37;;;;;;;4.50;2.45;;;28.70;46.70;;;;;;5067931;28;20035;-70
2021/05/30 09:38:09;;;;;;;3.22;2.60;;;28.80;46.90;;;;;;5070424;28;20158;-71
2021/05/30 09:40:54;;;;;;;3.03;2.45;;;;;;;;;;5068210;28;20044;-69
2021/05/30 09:43:22;;;;;;;2.42;2.22;;;;;;;;;;5069073;28;20313;-70
2021/05/30 09:45:58;;;;;;;3.90;2.17;;;;;;;;;;5052501;28;20020;-70
2021/05/30 09:48:24;;;;;;;2.65;2.45;;;;;;;;;;5071451;28;20369;-71
2021/05/30 09:51:04;;;;;;;3.33;2.38;;;;;;;;;;5073968;28;20041;-69
2021/05/30 09:53:31;;;;;;;2.37;2.17;;;;;;;;;;5073829;28;20082;-69
2021/05/30 09:55:57;;;;;;;3.20;2.60;;;;;;;;;;5056074;28;20338;-69
2021/05/30 09:58:25;;;;;;;2.95;2.10;;;;;;;;;;5074657;28;20029;-69
2021/05/30 10:00:51;;;;;;;3.28;2.35;;;;;;;;;;5073817;28;20469;-72
2021/05/30 10:03:21;;;;;;;2.70;2.10;;;;;;;;;;5056416;28;20020;-71
2021/05/30 10:05:47;;;;;;;4.35;2.22;;;;;;;;;;5073935;28;20035;-70
2021/05/30 10:08:15;;;;;;;4.22;2.33;;;;;;;;;;5074532;28;20021;-73
2021/05/30 10:10:41;;;;;;;3.83;2.40;;;;;;;;;;5074187;28;20036;-68
2021/05/30 10:13:10;;;;;;;4.15;2.65;;;;;;;;;;5075029;28;20025;-77
2021/05/30 10:15:37;;;;;;;2.10;1.90;;;;;;;;;;5071830;28;20027;-74
2021/05/30 10:18:21;;;;;;;2.80;2.40;;;;;;;;;;5055092;28;20466;-68
2021/05/30 10:20:50;;;;;;;5.18;2.20;;;;;;;;;;5073126;28;20036;-72
2021/05/30 10:23:17;;;;;;;2.60;2.40;;;;;;;;;;5071728;28;20086;-72
2021/05/30 10:25:43;;;;;;;2.63;1.80;;;;;;;;;;5073946;28;20020;-74
2021/05/30 10:28:15;;;;;;;2.65;2.40;;;;;;;;;;5073681;28;20025;-74
2021/05/30 10:30:44;;;;;;;5.55;2.63;;;;;;;;;;5073465;28;20035;-73
2021/05/30 10:33:24;;;;;;;3.72;2.58;;;;;;;;;;5073996;28;20032;-80
2021/05/30 10:35:54;;;;;;;2.03;1.90;;;;;;;;;;5073436;28;20035;-76
2021/05/30 10:38:42;;;;;;;2.42;2.22;;;;;;;;;;5073491;28;20251;-77
2021/05/30 10:41:27;;;;;;;2.42;2.22;;;;;;;;;;5072845;28;20090;-80
2021/05/30 10:43:53;;;;;;;4.30;2.40;;;;;;;;;;5055469;28;20012;-78
2021/05/30 10:46:19;;;;;;;3.05;2.25;;;;;;;;;;5071692;28;20194;-79
2021/05/30 10:49:07;;;;;;;2.72;2.53;;;;;;;;;;5073495;28;20016;-79
2021/05/30 10:51:42;;;;;;;2.83;2.47;;;;;;;;;;5073289;28;20410;-79
2021/05/30 10:54:11;;;;;;;4.07;2.58;;;;;;;;;;5072935;28;20021;-75
2021/05/30 10:56:39;;;;;;;2.92;2.42;;;;;;;;;;5067797;28;20092;-73
2021/05/30 10:59:05;;;;;;;2.80;2.40;;;;;;;;;;5070998;28;20020;-77
2021/05/30 11:01:34;;;;;;;4.22;2.70;;;;;;;;;;5071164;28;20173;-74
2021/05/30 11:04:29;;;;;;;4.72;2.85;;;;;;;;;;5071410;28;20031;-76
2021/05/30 11:06:59;;;;;;;3.15;2.42;;;;;;;;;;5064645;28;20033;-74
2021/05/30 11:09:45;;;;;;;4.10;2.60;;;;;;;;;;5071917;28;20354;-78
2021/05/30 11:12:23;;;;;;;2.95;2.45;;;;;;;;;;5070253;28;20162;-79
2021/05/30 11:15:09;;;;;;;2.90;2.22;;;;;;;;;;5074751;28;20032;-77
2021/05/30 11:17:35;;;;;;;4.13;3.08;;;;;;;;;;5073070;28;20021;-74
2021/05/30 11:20:02;;;;;;;3.83;2.83;;;;;;;;;;5072897;28;20029;-74
2021/05/30 11:22:42;;;;;;;3.65;2.55;;;;;;;;;;5055015;28;20112;-75
2021/05/30 11:25:13;;;;;;;2.63;2.27;;;;;;;;;;5072688;28;20020;-74
2021/05/30 11:27:54;;;;;;;2.90;2.25;;;;;;;;;;5055142;28;20079;-71
2021/05/30 11:30:44;;;;;;;3.08;2.58;;;29.60;47.90;;;;;;5071686;28;20021;-73
2021/05/30 11:33:26;;;;;;;3.45;2.65;;;31.40;42.40;;;;;;5054813;28;20115;-76
2021/05/30 11:36:01;;;;;;;3.03;2.15;;;31.20;42.50;;;;;;5054851;28;20028;-81
2021/05/30 11:38:45;;;;;;;2.38;2.15;;;30.60;43.10;;;;;;5072523;28;20021;-78
2021/05/30 11:41:24;;;;;;;2.72;2.22;;;31.00;42.90;;;;;;5071667;28;20044;-73
2021/05/30 11:44:13;;;;;;;3.63;2.30;;;30.70;42.70;;;;;;5071766;28;20063;-71
2021/05/30 11:46:51;;;;;;;2.97;2.67;;;30.30;43.80;;;;;;5054280;28;20031;-71
2021/05/30 11:49:18;;;;;;;5.45;2.88;;;;;;;;;;5071478;28;20093;-74
2021/05/30 11:51:58;;;;;;;4.03;2.17;;;;;;;;;;5053518;28;20123;-74
2021/05/30 11:54:25;;;;;;;3.00;2.70;;;;;;;;;;5071986;28;20020;-75
2021/05/30 11:56:52;;;;;;;2.65;2.40;;;;;;;;;;5072106;28;20531;-82
2021/05/30 11:59:28;;;;;;;2.80;2.38;;;;;;;;;;5072776;28;20031;-79
2021/05/30 12:01:54;;;;;;;3.00;2.58;;;;;;;;;;5072106;28;20028;-82
2021/05/30 12:04:31;;;;;;;3.03;2.40;;;;;;;;;;5071703;28;20021;-75
2021/05/30 12:06:58;;;;;;;4.22;2.35;;;;;;;;;;5072059;28;20434;-75
2021/05/30 12:09:41;;;;;;;4.22;2.63;;;;;;;;;;5071284;28;20029;-76
2021/05/30 12:12:23;;;;;;;9.10;2.55;;;;;;;;;;5070472;28;20035;-73
2021/05/30 12:14:50;;;;;;;3.25;2.50;;;;;;;;;;5052742;28;20034;-75
2021/05/30 12:17:16;;;;;;;3.70;2.47;;;;;;;;;;5082774;28;20446;-71
2021/05/30 12:19:42;;;;;;;3.35;2.45;;;;;;;;;;5071035;28;20060;-66
2021/05/30 12:22:08;;;;;;;2.50;2.30;;;;;;;;;;5071496;28;20043;-68
2021/05/30 12:24:40;;;;;;;3.63;2.70;;;;;;;;;;5071381;28;20036;-67
2021/05/30 12:27:08;;;;;;;12.25;2.50;;;;;;;;;;5071430;28;20040;-68
2021/05/30 12:29:37;;;;;;;3.88;2.47;;;;;;;;;;5071298;28;20135;-67
2021/05/30 12:32:03;;;;;;;2.75;2.42;;;;;;;;;;5070071;28;20038;-66
2021/05/30 12:34:38;;;;;;;2.60;2.38;;;;;;;;;;5071393;28;20024;-75
2021/05/30 12:37:06;;;;;;;2.25;2.05;;;;;;;;;;5071095;28;20028;-74
2021/05/30 12:39:33;;;;;;;3.47;2.30;;;;;;;;;;5070116;28;20040;-71
2021/05/30 12:42:06;;;;;;;2.60;2.22;;;;;;;;;;5069444;28;20055;-69
2021/05/30 12:44:40;;;;;;;3.67;2.33;;;;;;;;;;5069602;28;20190;-80
2021/05/30 12:47:09;;;;;;;3.92;2.30;;;;;;;;;;5067093;28;20503;-78
2021/05/30 12:49:36;;;;;;;3.88;2.60;;;;;;;;;;5090560;28;20035;-78
2021/05/30 12:52:16;;;;;;;4.25;2.28;;;;;;;;;;5090629;28;20043;-79
2021/05/30 12:54:43;;;;;;;2.45;2.00;;;;;;;;;;5090665;28;20509;-81
2021/05/30 12:57:10;;;;;;;2.28;2.00;;;;;;;;;;5091355;28;20035;-78
2021/05/30 12:59:48;;;;;;;3.35;1.90;;;30.80;41.10;;;;;;5091505;28;20017;-76
2021/05/30 13:02:17;;;;;;;3.30;2.42;;;33.20;39.80;;;;;;5091521;28;20039;-77
2021/05/30 13:04:44;;;;;;;2.35;2.13;;;32.40;40.40;;;;;;5091319;28;20409;-76
2021/05/30 13:07:11;;;;;;;4.03;2.53;;;32.80;39.70;;;;;;5091340;28;20553;-77
2021/05/30 13:09:52;;;;;;;2.97;2.30;;;32.50;40.60;;;;;;5090145;28;20034;-77
2021/05/30 13:12:24;;;;;;;2.40;2.10;;;32.70;39.10;;;;;;5091391;28;20024;-77
2021/05/30 13:15:02;;;;;;;2.50;1.75;;;32.30;41.20;;;;;;5091323;28;20102;-77
2021/05/30 13:17:27;;;;;;;2.65;1.90;;;33.20;40.90;;;;;;5073307;28;20067;-76
2021/05/30 13:20:04;;;;;;;2.47;2.00;;;34.70;38.60;;;;;;5071284;28;20044;-76
2021/05/30 13:22:30;;;;;;;3.33;2.03;;;35.20;38.10;;;;;;5071208;28;20024;-78
2021/05/30 13:24:58;;;;;;;3.08;2.50;;;34.00;38.10;;;;;;5074720;28;20044;-77
2021/05/30 13:27:26;;;;;;;5.00;2.20;;;33.00;39.80;;;;;;5074794;28;20108;-76
2021/05/30 13:30:03;;;;;;;2.80;2.10;;;31.50;41.20;;;;;;5074821;28;20028;-77
2021/05/30 13:32:29;;;;;;;4.88;2.28;;;30.20;41.70;;;;;;5073712;28;20120;-77
2021/05/30 13:35:01;;;;;;;9.63;2.92;;;29.30;43.20;;;;;;5074647;28;20112;-78
2021/05/30 13:37:27;;;;;;;2.50;2.30;;;29.00;44.00;;;;;;5074948;28;20095;-76
2021/05/30 13:40:00;;;;;;;2.95;2.40;;;28.40;44.20;;;;;;5074842;28;20476;-76
2021/05/30 13:42:27;;;;;;;2.78;2.25;;;28.80;46.20;;;;;;5074440;28;20201;-77
2021/05/30 13:44:53;;;;;;;3.38;2.30;;;30.10;44.80;;;;;;5074535;28;20330;-76
2021/05/30 13:47:21;;;;;;;3.47;2.50;;;31.60;42.10;;;;;;5074527;28;20031;-76
2021/05/30 13:49:47;;;;;;;4.47;2.40;;;32.50;39.90;;;;;;5056674;28;20028;-76
2021/05/30 13:52:15;;;;;;;3.35;2.53;;;32.00;41.40;;;;;;5074741;28;20029;-77
2021/05/30 13:54:41;;;;;;;3.00;2.50;;;33.00;40.40;;;;;;5074340;28;20092;-77
2021/05/30 13:57:07;;;;;;;1.63;1.52;;;33.60;40.50;;;;;;5074698;28;20098;-77
2021/05/30 13:59:33;;;;;;;2.30;1.92;;;34.30;38.10;;;;;;5074388;28;20456;-77
2021/05/30 14:02:02;;;;;;;4.10;2.08;;;34.40;38.20;;;;;;5056982;28;20090;-77
2021/05/30 14:04:29;;;;;;;2.53;2.17;;;34.70;38.20;;;;;;5074590;28;20025;-78
2021/05/30 14:06:55;;;;;;;2.75;2.55;;;35.00;38.00;;;;;;5074757;28;20020;-76
2021/05/30 14:09:21;;;;;;;2.60;2.40;;;34.00;38.70;;;;;;5074866;28;20116;-77
2021/05/30 14:11:46;;;;;;;2.60;2.40;;;33.00;40.20;;;;;;5075152;28;20040;-76
2021/05/30 14:14:12;;;;;;;5.25;2.30;;;31.20;41.70;;;;;;5074607;28;20410;-76